createdAt,value
2019-03-27T00:00:14.616Z,81.00
2019-03-27T00:02:43.480Z,81.00
2019-03-27T00:05:12.540Z,81.10
2019-03-27T00:07:41.693Z,81.30
2019-03-27T00:10:11.510Z,80.60
2019-03-27T00:12:40.404Z,81.20
2019-03-27T00:15:13.171Z,81.40
2019-03-27T00:17:41.411Z,81.50
2019-03-27T00:20:11.044Z,81.70
2019-03-27T00:22:39.949Z,82.30
2019-03-27T00:25:09.893Z,82.00
2019-03-27T00:27:38.780Z,81.50
2019-03-27T00:30:08.979Z,82.00
2019-03-27T00:32:37.936Z,82.30
2019-03-27T00:35:08.064Z,82.80
2019-03-27T00:37:40.509Z,82.70
2019-03-27T00:40:10.369Z,82.80
2019-03-27T00:42:39.357Z,82.20
2019-03-27T00:45:09.487Z,82.90
2019-03-27T00:47:39.400Z,82.80
2019-03-27T00:50:09.209Z,82.40
2019-03-27T00:52:38.307Z,82.10
2019-03-27T00:55:08.395Z,82.80
2019-03-27T00:57:37.399Z,83.20
2019-03-27T01:00:09.437Z,82.90
2019-03-27T01:02:38.379Z,84.00
2019-03-27T01:05:07.363Z,83.40
2019-03-27T01:07:36.373Z,83.30
2019-03-27T01:10:06.277Z,83.10
2019-03-27T01:12:35.406Z,83.10
2019-03-27T01:15:06.444Z,83.10
2019-03-27T01:17:35.332Z,83.80
2019-03-27T01:20:05.464Z,83.60
2019-03-27T01:22:34.354Z,84.00
2019-03-27T01:25:03.281Z,83.70
2019-03-27T01:27:35.405Z,83.70
2019-03-27T01:30:03.125Z,83.40
2019-03-27T01:32:32.029Z,83.40
2019-03-27T01:35:00.914Z,83.00
2019-03-27T01:37:29.856Z,84.00
2019-03-27T01:43:27.028Z,83.20
2019-03-27T01:45:56.004Z,83.30
2019-03-27T01:48:24.886Z,84.10
2019-03-27T01:50:53.873Z,84.30
2019-03-27T01:53:22.853Z,84.00
2019-03-27T01:55:51.745Z,84.40
2019-03-27T01:58:20.817Z,84.40
2019-03-27T02:00:49.714Z,84.40
2019-03-27T02:03:18.744Z,83.90
2019-03-27T02:05:47.636Z,84.30
2019-03-27T02:08:16.578Z,84.50
2019-03-27T02:10:45.675Z,84.40
2019-03-27T02:13:14.644Z,83.80
2019-03-27T02:15:43.589Z,83.30
2019-03-27T02:18:12.557Z,83.70
2019-03-27T02:20:41.551Z,83.50
2019-03-27T02:23:10.551Z,83.20
2019-03-27T02:25:39.447Z,84.30
2019-03-27T02:28:08.376Z,83.80
2019-03-27T02:30:38.840Z,84.20
2019-03-27T02:33:07.880Z,84.30
2019-03-27T02:35:36.805Z,84.50
2019-03-27T02:38:05.964Z,84.40
2019-03-27T02:40:35.030Z,85.00
2019-03-27T02:43:03.985Z,85.30
2019-03-27T02:45:32.923Z,85.50
2019-03-27T02:48:01.806Z,85.70
2019-03-27T02:50:30.770Z,86.10
2019-03-27T02:52:59.641Z,85.80
2019-03-27T02:55:28.583Z,86.20
2019-03-27T02:57:57.582Z,86.00
2019-03-27T03:00:26.522Z,86.80
2019-03-27T03:02:55.667Z,87.20
2019-03-27T03:05:24.554Z,87.20
2019-03-27T03:07:53.554Z,87.60
2019-03-27T03:10:22.737Z,87.60
2019-03-27T03:12:51.625Z,87.80
2019-03-27T03:15:22.121Z,88.00
2019-03-27T03:17:51.144Z,87.70
2019-03-27T03:20:20.233Z,87.90
2019-03-27T03:22:49.137Z,88.40
2019-03-27T03:25:18.045Z,88.20
2019-03-27T03:27:47.046Z,88.10
2019-03-27T03:30:16.169Z,88.30
2019-03-27T03:32:45.181Z,88.50
2019-03-27T03:35:14.308Z,88.50
2019-03-27T03:37:43.324Z,88.60
2019-03-27T03:40:13.373Z,88.80
2019-03-27T03:42:42.254Z,88.40
2019-03-27T03:45:12.209Z,88.80
2019-03-27T03:47:41.140Z,89.20
2019-03-27T03:50:13.151Z,88.20
2019-03-27T03:52:45.624Z,88.90
2019-03-27T03:55:12.626Z,89.20
2019-03-27T03:57:41.662Z,87.50
2019-03-27T04:00:10.784Z,87.60
2019-03-27T04:02:40.281Z,88.20
2019-03-27T04:05:11.607Z,87.70
2019-03-27T04:07:40.562Z,88.00
2019-03-27T04:10:09.508Z,87.30
2019-03-27T04:12:38.501Z,86.90
2019-03-27T04:15:08.254Z,87.20
2019-03-27T04:17:37.145Z,87.40
2019-03-27T04:20:07.831Z,86.80
2019-03-27T04:22:37.181Z,87.00
2019-03-27T04:25:07.535Z,86.90
2019-03-27T04:27:36.465Z,87.50
2019-03-27T04:30:07.495Z,87.50
2019-03-27T04:32:36.536Z,87.70
2019-03-27T04:35:07.446Z,88.60
2019-03-27T04:37:36.375Z,87.60
2019-03-27T04:40:06.837Z,87.40
2019-03-27T04:42:35.779Z,87.70
2019-03-27T04:45:06.131Z,88.00
2019-03-27T04:47:35.041Z,88.80
2019-03-27T04:50:05.652Z,89.00
2019-03-27T04:52:34.616Z,88.10
2019-03-27T04:55:04.079Z,88.20
2019-03-27T04:57:33.263Z,88.70
2019-03-27T05:00:02.526Z,88.30
2019-03-27T05:02:31.678Z,89.30
2019-03-27T05:05:01.073Z,89.30
2019-03-27T05:07:30.060Z,89.50
2019-03-27T05:09:59.168Z,89.40
2019-03-27T05:12:28.121Z,89.50
2019-03-27T05:14:57.053Z,89.60
2019-03-27T05:17:26.006Z,89.80
2019-03-27T05:19:54.915Z,89.30
2019-03-27T05:22:23.812Z,89.50
2019-03-27T05:24:52.748Z,88.70
2019-03-27T05:27:21.702Z,88.80
2019-03-27T05:29:50.594Z,88.50
2019-03-27T05:32:19.472Z,88.30
2019-03-27T05:34:48.416Z,88.10
2019-03-27T05:37:17.306Z,88.80
2019-03-27T05:39:46.244Z,88.70
2019-03-27T05:42:15.134Z,89.20
2019-03-27T05:44:44.124Z,88.70
2019-03-27T05:47:13.070Z,89.40
2019-03-27T05:49:42.056Z,90.00
2019-03-27T05:52:11.209Z,90.10
2019-03-27T05:54:40.300Z,90.00
2019-03-27T05:57:09.408Z,90.10
2019-03-27T05:59:38.866Z,89.80
2019-03-27T06:02:07.873Z,90.00
2019-03-27T06:04:36.765Z,89.60
2019-03-27T06:07:05.695Z,90.10
2019-03-27T06:09:34.590Z,90.00
2019-03-27T06:12:03.545Z,89.40
2019-03-27T06:14:32.478Z,89.60
2019-03-27T06:17:01.379Z,89.10
2019-03-27T06:19:30.342Z,89.90
2019-03-27T06:21:59.260Z,89.80
2019-03-27T06:24:28.224Z,89.00
2019-03-27T06:26:57.099Z,89.70
2019-03-27T06:29:25.989Z,89.80
2019-03-27T06:31:54.948Z,89.40
2019-03-27T06:34:23.898Z,90.00
2019-03-27T06:36:52.786Z,90.00
2019-03-27T06:39:21.717Z,89.70
2019-03-27T06:41:50.613Z,89.80
2019-03-27T06:44:19.575Z,89.20
2019-03-27T06:46:48.644Z,89.40
2019-03-27T06:49:17.684Z,89.40
2019-03-27T06:51:46.727Z,89.40
2019-03-27T06:54:15.824Z,90.00
2019-03-27T06:56:45.225Z,90.00
2019-03-27T06:59:15.445Z,89.90
2019-03-27T07:01:45.911Z,89.40
2019-03-27T07:04:16.465Z,89.40
2019-03-27T07:06:46.821Z,89.50
2019-03-27T07:09:15.813Z,88.70
2019-03-27T07:11:46.151Z,88.40
2019-03-27T07:14:16.931Z,88.60
2019-03-27T07:16:47.342Z,88.50
2019-03-27T07:19:16.819Z,88.10
2019-03-27T07:21:48.462Z,88.00
2019-03-27T07:24:18.242Z,87.50
2019-03-27T07:26:48.289Z,87.60
2019-03-27T07:29:19.238Z,87.10
2019-03-27T07:31:49.924Z,86.70
2019-03-27T07:34:20.585Z,86.50
2019-03-27T07:36:50.277Z,86.30
2019-03-27T07:39:20.925Z,86.40
2019-03-27T07:41:50.055Z,85.80
2019-03-27T07:44:19.001Z,85.90
2019-03-27T07:46:47.941Z,86.00
2019-03-27T07:49:16.918Z,85.70
2019-03-27T07:51:45.868Z,85.70
2019-03-27T07:54:14.779Z,85.00
2019-03-27T07:56:43.784Z,85.20
2019-03-27T07:59:12.969Z,84.90
2019-03-27T08:01:41.973Z,84.50
2019-03-27T08:04:14.097Z,84.20
2019-03-27T08:06:41.586Z,83.70
2019-03-27T08:09:10.542Z,83.20
2019-03-27T08:11:39.575Z,82.80
2019-03-27T08:14:08.675Z,82.40
2019-03-27T08:16:37.714Z,80.10
2019-03-27T08:19:08.003Z,79.80
2019-03-27T08:21:37.284Z,80.60
2019-03-27T08:24:06.270Z,78.80
2019-03-27T08:26:35.134Z,78.20
2019-03-27T08:29:04.135Z,77.50
2019-03-27T08:31:33.156Z,75.70
2019-03-27T08:34:02.172Z,74.80
2019-03-27T08:36:31.038Z,73.30
2019-03-27T08:38:59.928Z,73.70
2019-03-27T08:41:28.926Z,73.10
2019-03-27T08:43:57.821Z,73.40
2019-03-27T08:46:28.009Z,73.10
2019-03-27T08:48:56.963Z,74.50
2019-03-27T08:51:26.256Z,71.10
2019-03-27T08:53:55.489Z,72.10
2019-03-27T08:56:24.515Z,73.10
2019-03-27T08:58:53.458Z,71.80
2019-03-27T09:01:22.448Z,73.20
2019-03-27T09:03:51.355Z,74.30
2019-03-27T09:06:33.123Z,70.20
2019-03-27T09:08:50.938Z,71.10
2019-03-27T09:11:20.396Z,69.10
2019-03-27T09:13:49.272Z,66.20
2019-03-27T09:16:18.243Z,67.30
2019-03-27T09:18:47.251Z,65.20
2019-03-27T09:21:16.240Z,63.40
2019-03-27T09:23:45.981Z,63.70
2019-03-27T09:26:15.087Z,61.00
2019-03-27T09:28:44.050Z,60.00
2019-03-27T09:31:12.992Z,61.10
2019-03-27T09:33:41.888Z,60.90
2019-03-27T09:36:10.988Z,61.20
2019-03-27T09:38:40.044Z,60.00
2019-03-27T09:41:09.101Z,59.30
2019-03-27T09:43:38.131Z,57.00
2019-03-27T09:46:07.043Z,54.30
2019-03-27T09:48:36.193Z,56.20
2019-03-27T09:51:05.209Z,53.70
2019-03-27T09:53:34.078Z,55.00
2019-03-27T09:56:03.328Z,53.90
2019-03-27T09:58:36.039Z,53.70
2019-03-27T10:01:06.041Z,53.90
2019-03-27T10:03:35.206Z,52.50
2019-03-27T10:06:04.109Z,54.30
2019-03-27T10:08:33.125Z,54.10
2019-03-27T10:11:02.181Z,55.40
2019-03-27T10:13:31.258Z,56.80
2019-03-27T10:16:00.217Z,56.40
2019-03-27T10:18:29.136Z,56.10
2019-03-27T10:20:59.029Z,56.20
2019-03-27T10:23:28.049Z,56.70
2019-03-27T10:25:56.948Z,55.50
2019-03-27T10:28:25.975Z,57.20
2019-03-27T10:30:54.899Z,57.20
2019-03-27T10:33:23.921Z,57.00
2019-03-27T10:35:52.862Z,57.20
2019-03-27T10:38:21.801Z,58.20
2019-03-27T10:40:50.698Z,57.00
2019-03-27T10:43:19.625Z,56.60
2019-03-27T10:45:48.599Z,58.10
2019-03-27T10:48:17.495Z,58.70
2019-03-27T10:50:46.462Z,61.90
2019-03-27T10:53:15.368Z,60.00
2019-03-27T10:55:44.464Z,61.90
2019-03-27T10:58:13.382Z,62.20
2019-03-27T11:00:42.306Z,64.80
2019-03-27T11:03:11.264Z,64.80
2019-03-27T11:05:40.613Z,65.20
2019-03-27T11:08:11.476Z,66.50
2019-03-27T11:10:40.204Z,67.50
2019-03-27T11:13:09.234Z,68.90
2019-03-27T11:15:38.181Z,70.60
2019-03-27T11:18:07.331Z,70.10
2019-03-27T11:20:36.224Z,70.00
2019-03-27T11:23:05.287Z,72.20
2019-03-27T11:25:34.297Z,71.50
2019-03-27T11:28:03.345Z,69.80
2019-03-27T11:30:37.402Z,69.50
2019-03-27T11:33:06.918Z,70.00
2019-03-27T11:35:35.881Z,69.90
2019-03-27T11:38:05.027Z,69.90
2019-03-27T11:40:33.967Z,68.90
2019-03-27T11:43:02.905Z,68.60
2019-03-27T11:45:31.877Z,69.30
2019-03-27T11:48:00.865Z,70.80
2019-03-27T11:50:29.808Z,69.10
2019-03-27T11:52:58.700Z,70.50
2019-03-27T11:55:42.492Z,70.90
2019-03-27T11:58:27.402Z,69.70
2019-03-27T12:00:55.815Z,68.50
2019-03-27T12:03:24.722Z,67.70
2019-03-27T12:05:53.710Z,69.30
2019-03-27T12:08:22.603Z,68.90
2019-03-27T12:10:51.563Z,68.10
2019-03-27T12:13:20.464Z,68.80
2019-03-27T12:15:49.392Z,67.00
2019-03-27T12:18:18.611Z,69.40
2019-03-27T12:20:58.360Z,67.50
2019-03-27T12:23:18.295Z,66.50
2019-03-27T12:25:47.232Z,65.40
2019-03-27T12:28:16.123Z,65.30
2019-03-27T12:30:45.184Z,65.30
2019-03-27T12:33:14.097Z,66.20
2019-03-27T12:35:43.053Z,64.90
2019-03-27T12:38:11.997Z,66.30
2019-03-27T12:40:41.047Z,65.80
2019-03-27T12:43:10.069Z,66.10
2019-03-27T12:45:39.188Z,67.40
2019-03-27T12:48:08.504Z,68.40
2019-03-27T12:50:37.492Z,66.40
2019-03-27T12:53:06.825Z,66.40
2019-03-27T12:55:35.838Z,68.10
2019-03-27T12:58:05.197Z,70.10
2019-03-27T13:00:34.349Z,68.70
2019-03-27T13:03:03.447Z,68.80
2019-03-27T13:05:32.413Z,68.40
2019-03-27T13:08:01.436Z,67.80
2019-03-27T13:10:30.356Z,69.50
2019-03-27T13:13:01.947Z,68.00
2019-03-27T13:15:31.144Z,68.50
2019-03-27T13:18:00.040Z,69.50
2019-03-27T13:20:29.020Z,68.80
2019-03-27T13:22:57.951Z,70.00
2019-03-27T13:25:27.012Z,69.30
2019-03-27T13:27:56.293Z,69.70
2019-03-27T13:30:25.342Z,69.00
2019-03-27T13:32:54.264Z,67.80
2019-03-27T13:35:23.176Z,68.50
2019-03-27T13:37:52.170Z,70.90
2019-03-27T13:40:22.029Z,70.70
2019-03-27T13:42:51.096Z,69.20
2019-03-27T13:45:20.841Z,68.70
2019-03-27T13:47:49.781Z,68.70
2019-03-27T13:50:20.493Z,68.50
2019-03-27T13:52:49.665Z,69.60
2019-03-27T13:55:18.943Z,70.20
2019-03-27T13:57:48.003Z,70.20
2019-03-27T14:00:18.883Z,69.20
2019-03-27T14:02:47.834Z,69.60
2019-03-27T14:05:17.941Z,71.40
2019-03-27T14:07:46.842Z,70.70
2019-03-27T14:10:17.177Z,71.70
2019-03-27T14:12:46.130Z,71.40
2019-03-27T14:15:16.129Z,71.70
2019-03-27T14:17:45.123Z,72.50
2019-03-27T14:20:14.421Z,73.20
2019-03-27T14:22:43.558Z,73.00
2019-03-27T14:25:13.123Z,71.70
2019-03-27T14:27:45.173Z,71.00
2019-03-27T14:30:15.593Z,69.70
2019-03-27T14:32:44.484Z,70.40
2019-03-27T14:35:14.039Z,70.30
2019-03-27T14:37:42.958Z,70.10
2019-03-27T14:40:12.143Z,69.70
2019-03-27T14:42:41.033Z,70.10
2019-03-27T14:45:10.442Z,70.00
2019-03-27T14:47:39.387Z,70.00
2019-03-27T14:50:09.272Z,69.30
2019-03-27T14:52:38.243Z,69.70
2019-03-27T14:55:09.270Z,70.00
2019-03-27T14:57:39.193Z,70.80
2019-03-27T15:00:12.189Z,71.40
2019-03-27T15:02:41.203Z,72.20
2019-03-27T15:05:10.472Z,70.90
2019-03-27T15:07:39.381Z,72.20
2019-03-27T15:10:10.156Z,71.30
2019-03-27T15:12:39.393Z,72.20
2019-03-27T15:15:10.005Z,71.50
2019-03-27T15:17:39.056Z,71.80
2019-03-27T15:20:09.020Z,71.80
2019-03-27T15:22:37.933Z,71.60
2019-03-27T15:25:07.929Z,72.70
2019-03-27T15:27:36.864Z,72.20
2019-03-27T15:30:08.794Z,72.50
2019-03-27T15:32:37.788Z,71.60
2019-03-27T15:35:08.285Z,72.00
2019-03-27T15:37:37.177Z,72.70
2019-03-27T15:40:07.402Z,73.30
2019-03-27T15:42:36.429Z,73.50
2019-03-27T15:45:09.511Z,74.50
2019-03-27T15:47:38.397Z,74.50
2019-03-27T15:50:07.700Z,73.30
2019-03-27T15:52:37.171Z,73.40
2019-03-27T15:55:06.852Z,73.60
2019-03-27T15:57:35.858Z,74.30
2019-03-27T16:00:06.652Z,73.70
2019-03-27T16:02:35.704Z,73.60
2019-03-27T16:05:06.066Z,72.70
2019-03-27T16:07:35.046Z,73.60
2019-03-27T16:10:05.991Z,73.80
2019-03-27T16:12:36.486Z,73.80
2019-03-27T16:15:07.780Z,74.20
2019-03-27T16:17:36.745Z,74.50
2019-03-27T16:20:08.808Z,74.80
2019-03-27T16:22:50.055Z,75.80
2019-03-27T16:25:08.699Z,75.40
2019-03-27T16:27:37.626Z,75.00
2019-03-27T16:30:08.689Z,75.50
2019-03-27T16:32:37.578Z,74.50
2019-03-27T16:35:07.838Z,74.70
2019-03-27T16:37:37.097Z,74.60
2019-03-27T16:40:07.211Z,75.20
2019-03-27T16:42:36.395Z,75.60
2019-03-27T16:45:07.525Z,77.00
2019-03-27T16:47:36.564Z,77.00
2019-03-27T16:50:07.539Z,76.00
2019-03-27T16:52:36.509Z,76.00
2019-03-27T16:55:08.573Z,75.80
2019-03-27T16:57:37.510Z,75.90
2019-03-27T17:00:07.805Z,76.90
2019-03-27T17:02:36.848Z,76.50
2019-03-27T17:05:07.452Z,76.60
2019-03-27T17:07:36.406Z,77.50
2019-03-27T17:10:08.025Z,77.70
2019-03-27T17:12:39.420Z,77.60
2019-03-27T17:15:08.647Z,77.40
2019-03-27T17:17:37.734Z,76.90
2019-03-27T17:20:11.943Z,78.10
2019-03-27T17:22:41.236Z,78.10
2019-03-27T17:25:10.877Z,76.70
2019-03-27T17:27:39.843Z,78.50
2019-03-27T17:30:10.909Z,78.10
2019-03-27T17:32:39.968Z,78.40
2019-03-27T17:35:08.997Z,77.90
2019-03-27T17:37:37.993Z,79.50
2019-03-27T17:40:07.607Z,78.40
2019-03-27T17:42:36.504Z,78.20
2019-03-27T17:45:06.873Z,77.50
2019-03-27T17:47:36.829Z,77.70
2019-03-27T17:50:06.626Z,77.80
2019-03-27T17:52:38.141Z,77.60
2019-03-27T17:55:08.049Z,78.10
2019-03-27T17:57:37.202Z,78.90
2019-03-27T18:00:12.040Z,78.90
2019-03-27T18:02:41.236Z,79.30
2019-03-27T18:05:10.436Z,78.20
2019-03-27T18:07:39.475Z,78.80
2019-03-27T18:10:08.752Z,77.90
2019-03-27T18:12:37.841Z,78.80
2019-03-27T18:15:08.691Z,78.40
2019-03-27T18:17:37.604Z,79.20
2019-03-27T18:20:06.748Z,79.10
2019-03-27T18:22:35.745Z,79.10
2019-03-27T18:25:05.957Z,78.70
2019-03-27T18:27:35.086Z,79.30
2019-03-27T18:30:06.449Z,79.80
2019-03-27T18:32:36.177Z,79.90
2019-03-27T18:35:06.942Z,80.70
2019-03-27T18:37:37.677Z,80.80
2019-03-27T18:40:07.819Z,80.20
2019-03-27T18:42:36.934Z,81.10
2019-03-27T18:45:07.843Z,81.60
2019-03-27T18:47:37.020Z,81.90
2019-03-27T18:50:10.066Z,81.30
2019-03-27T18:52:39.166Z,82.00
2019-03-27T18:55:09.216Z,81.00
2019-03-27T18:57:38.522Z,80.70
2019-03-27T19:00:09.046Z,81.00
2019-03-27T19:02:38.043Z,81.20
2019-03-27T19:05:08.291Z,82.20
2019-03-27T19:07:37.843Z,82.70
2019-03-27T19:10:07.991Z,82.30
2019-03-27T19:12:37.093Z,82.00
2019-03-27T19:15:07.604Z,82.40
2019-03-27T19:17:37.035Z,82.40
2019-03-27T19:20:07.337Z,82.40
2019-03-27T19:22:36.288Z,82.90
2019-03-27T19:25:08.452Z,83.10
2019-03-27T19:27:37.860Z,83.10
2019-03-27T19:30:08.186Z,83.80
2019-03-27T19:32:37.418Z,84.20
2019-03-27T19:35:06.961Z,84.50
2019-03-27T19:37:36.087Z,84.70
2019-03-27T19:40:06.137Z,84.70
2019-03-27T19:42:35.176Z,84.80
2019-03-27T19:45:05.785Z,83.80
2019-03-27T19:47:34.917Z,85.00
2019-03-27T19:50:05.598Z,83.80
2019-03-27T19:52:34.547Z,85.70
2019-03-27T19:55:03.439Z,85.50
2019-03-27T19:57:32.361Z,85.60
2019-03-27T20:00:01.886Z,86.10
2019-03-27T20:02:30.982Z,85.80
2019-03-27T20:04:59.935Z,85.50
2019-03-27T20:07:35.795Z,86.00
2019-03-27T20:09:59.575Z,85.90
2019-03-27T20:12:28.478Z,86.60
2019-03-27T20:15:10.801Z,86.60
2019-03-27T20:17:28.119Z,86.60
2019-03-27T20:19:57.047Z,86.30
2019-03-27T20:22:25.943Z,86.60
2019-03-27T20:24:55.071Z,86.90
2019-03-27T20:27:24.033Z,87.80
2019-03-27T20:29:52.918Z,87.00
2019-03-27T20:32:21.825Z,85.80
2019-03-27T20:34:50.775Z,87.00
2019-03-27T20:37:19.655Z,86.90
2019-03-27T20:39:48.632Z,86.50
2019-03-27T20:42:17.560Z,86.60
2019-03-27T20:44:46.564Z,85.90
2019-03-27T20:47:15.588Z,86.90
2019-03-27T20:49:44.600Z,86.40
2019-03-27T20:52:13.545Z,86.90
2019-03-27T20:54:54.430Z,87.10
2019-03-27T20:57:13.264Z,86.40
2019-03-27T20:59:42.149Z,85.70
2019-03-27T21:02:11.290Z,86.00
2019-03-27T21:04:40.400Z,86.40
2019-03-27T21:07:09.289Z,87.40
2019-03-27T21:09:38.233Z,87.10
2019-03-27T21:12:07.286Z,88.40
2019-03-27T21:14:36.165Z,88.50
2019-03-27T21:17:05.099Z,88.60
2019-03-27T21:19:36.156Z,88.70
2019-03-27T21:22:04.682Z,88.80
2019-03-27T21:24:33.991Z,88.60
2019-03-27T21:27:03.220Z,88.80
2019-03-27T21:29:32.317Z,87.10
2019-03-27T21:32:01.660Z,87.70
2019-03-27T21:34:31.063Z,87.40
2019-03-27T21:37:00.024Z,88.40
2019-03-27T21:39:29.068Z,87.60
2019-03-27T21:41:58.053Z,87.50
2019-03-27T21:44:26.971Z,87.50
2019-03-27T21:46:55.989Z,87.40
2019-03-27T21:49:24.995Z,87.40
2019-03-27T21:51:54.036Z,88.10
2019-03-27T21:54:22.960Z,88.30
2019-03-27T21:56:51.940Z,87.20
2019-03-27T21:59:20.820Z,87.30
2019-03-27T22:01:49.775Z,88.30
2019-03-27T22:04:18.786Z,88.90
2019-03-27T22:06:47.963Z,88.20
2019-03-27T22:09:17.291Z,88.90
2019-03-27T22:11:46.471Z,87.90
2019-03-27T22:14:15.556Z,88.30
2019-03-27T22:16:44.496Z,88.50
2019-03-27T22:19:13.384Z,87.40
2019-03-27T22:21:42.376Z,87.00
2019-03-27T22:24:11.324Z,87.10
2019-03-27T22:26:40.251Z,89.40
2019-03-27T22:29:09.201Z,90.00
2019-03-27T22:31:38.210Z,90.00
2019-03-27T22:34:07.190Z,90.40
2019-03-27T22:36:36.085Z,89.90
2019-03-27T22:39:07.744Z,88.90
2019-03-27T22:41:36.838Z,87.80
2019-03-27T22:44:05.747Z,87.70
2019-03-27T22:46:35.136Z,88.30
2019-03-27T22:49:04.032Z,89.30
2019-03-27T22:51:33.153Z,89.70
2019-03-27T22:54:02.260Z,89.50
2019-03-27T22:56:31.291Z,90.00
2019-03-27T22:59:00.236Z,90.40
2019-03-27T23:01:32.148Z,90.50
2019-03-27T23:04:01.242Z,90.30
2019-03-27T23:06:30.233Z,90.20
2019-03-27T23:08:59.121Z,90.20
2019-03-27T23:11:28.155Z,90.10
2019-03-27T23:13:57.169Z,90.40
2019-03-27T23:16:26.108Z,90.50
2019-03-27T23:18:55.056Z,90.60
2019-03-27T23:21:24.617Z,90.40
2019-03-27T23:23:53.557Z,89.80
2019-03-27T23:26:22.639Z,90.30
2019-03-27T23:28:51.880Z,90.30
2019-03-27T23:31:21.195Z,90.60
2019-03-27T23:33:50.176Z,90.50
2019-03-27T23:36:19.124Z,89.20
2019-03-27T23:38:48.119Z,89.20
2019-03-27T23:41:17.064Z,89.10
2019-03-27T23:43:46.198Z,87.60
2019-03-27T23:46:15.253Z,87.60
2019-03-27T23:48:44.539Z,88.80
2019-03-27T23:51:13.486Z,88.60
2019-03-27T23:53:42.519Z,88.80
2019-03-27T23:56:16.969Z,88.40
2019-03-27T23:58:42.353Z,89.40
